sensor_id;sensor_type;location;lat;lon;timestamp;pressure;altitude;pressure_sealevel;temperature;humidity
9784;BME280;4931;44.874;-1.092;2024-01-15T00:01:17;101039.81;;;5.38;100.00
9784;BME280;4931;44.874;-1.092;2024-01-15T00:03:42;101040.41;;;5.40;100.00
9784;BME280;4931;44.874;-1.092;2024-01-15T00:06:08;101044.81;;;5.41;100.00
9784;BME280;4931;44.874;-1.092;2024-01-15T00:08:33;101042.19;;;5.46;100.00
9784;BME280;4931;44.874;-1.092;2024-01-15T00:10:59;101040.75;;;5.56;100.00
9784;BME280;4931;44.874;-1.092;2024-01-15T00:13:25;101035.78;;;5.53;100.00
9784;BME280;4931;44.874;-1.092;2024-01-15T00:15:50;101036.94;;;5.57;100.00
9784;BME280;4931;44.874;-1.092;2024-01-15T00:18:16;101020.84;;;5.55;100.00
9784;BME280;4931;44.874;-1.092;2024-01-15T00:20:41;101022.38;;;5.63;100.00
9784;BME280;4931;44.874;-1.092;2024-01-15T00:23:07;101007.13;;;5.62;100.00
9784;BME280;4931;44.874;-1.092;2024-01-15T00:25:32;101012.00;;;5.60;100.00
9784;BME280;4931;44.874;-1.092;2024-01-15T00:27:57;101007.13;;;5.62;100.00
9784;BME280;4931;44.874;-1.092;2024-01-15T00:30:23;101005.00;;;5.64;100.00
9784;BME280;4931;44.874;-1.092;2024-01-15T00:32:48;101002.88;;;5.66;100.00
9784;BME280;4931;44.874;-1.092;2024-01-15T00:35:14;100995.28;;;5.68;100.00
9784;BME280;4931;44.874;-1.092;2024-01-15T00:37:40;100990.88;;;5.67;100.00
9784;BME280;4931;44.874;-1.092;2024-01-15T00:40:06;101000.47;;;5.70;100.00
9784;BME280;4931;44.874;-1.092;2024-01-15T00:42:33;100996.69;;;5.71;100.00
9784;BME280;4931;44.874;-1.092;2024-01-15T00:44:58;100999.06;;;5.67;100.00
9784;BME280;4931;44.874;-1.092;2024-01-15T00:47:24;100999.91;;;5.68;100.00
9784;BME280;4931;44.874;-1.092;2024-01-15T00:49:49;100994.09;;;5.64;100.00
9784;BME280;4931;44.874;-1.092;2024-01-15T00:52:15;100996.47;;;5.60;100.00
9784;BME280;4931;44.874;-1.092;2024-01-15T00:54:40;100994.59;;;5.61;100.00
9784;BME280;4931;44.874;-1.092;2024-01-15T00:57:06;100987.00;;;5.63;100.00
9784;BME280;4931;44.874;-1.092;2024-01-15T00:59:31;100973.03;;;5.59;100.00
9784;BME280;4931;44.874;-1.092;2024-01-15T01:01:56;100983.81;;;5.66;100.00
9784;BME280;4931;44.874;-1.092;2024-01-15T01:04:22;100971.84;;;5.67;100.00
9784;BME280;4931;44.874;-1.092;2024-01-15T01:06:47;100976.81;;;5.70;100.00
9784;BME280;4931;44.874;-1.092;2024-01-15T01:09:13;100967.25;;;5.68;100.00
9784;BME280;4931;44.874;-1.092;2024-01-15T01:11:39;100961.44;;;5.64;100.00
9784;BME280;4931;44.874;-1.092;2024-01-15T01:14:05;100950.06;;;5.67;100.00
9784;BME280;4931;44.874;-1.092;2024-01-15T01:16:30;100958.97;;;5.62;100.00
9784;BME280;4931;44.874;-1.092;2024-01-15T01:18:56;100959.88;;;5.68;100.00
9784;BME280;4931;44.874;-1.092;2024-01-15T01:21:22;100952.88;;;5.72;100.00
9784;BME280;4931;44.874;-1.092;2024-01-15T01:23:47;100945.78;;;5.71;100.00
9784;BME280;4931;44.874;-1.092;2024-01-15T01:26:17;100946.63;;;5.72;100.00
9784;BME280;4931;44.874;-1.092;2024-01-15T01:28:42;100949.09;;;5.73;100.00
9784;BME280;4931;44.874;-1.092;2024-01-15T01:31:08;100950.75;;;5.74;100.00
9784;BME280;4931;44.874;-1.092;2024-01-15T01:33:33;100945.41;;;5.79;100.00
9784;BME280;4931;44.874;-1.092;2024-01-15T01:35:59;100944.34;;;5.80;100.00
9784;BME280;4931;44.874;-1.092;2024-01-15T01:38:24;100932.78;;;5.73;100.00
9784;BME280;4931;44.874;-1.092;2024-01-15T01:40:50;100943.25;;;5.81;100.00
9784;BME280;4931;44.874;-1.092;2024-01-15T01:43:15;100941.03;;;5.78;100.00
9784;BME280;4931;44.874;-1.092;2024-01-15T01:45:41;100937.72;;;5.76;100.00
9784;BME280;4931;44.874;-1.092;2024-01-15T01:48:07;100931.47;;;5.76;100.00
9784;BME280;4931;44.874;-1.092;2024-01-15T01:50:33;100929.53;;;5.76;100.00
9784;BME280;4931;44.874;-1.092;2024-01-15T01:53:00;100914.78;;;5.72;100.00
9784;BME280;4931;44.874;-1.092;2024-01-15T01:55:27;100922.94;;;5.72;100.00
9784;BME280;4931;44.874;-1.092;2024-01-15T01:57:55;100911.16;;;5.67;100.00
9784;BME280;4931;44.874;-1.092;2024-01-15T02:00:21;100905.34;;;5.63;100.00
9784;BME280;4931;44.874;-1.092;2024-01-15T02:02:46;100907.81;;;5.64;100.00
9784;BME280;4931;44.874;-1.092;2024-01-15T02:05:14;100913.06;;;5.66;100.00
9784;BME280;4931;44.874;-1.092;2024-01-15T02:07:43;100906.50;;;5.67;100.00
9784;BME280;4931;44.874;-1.092;2024-01-15T02:10:09;100894.47;;;5.63;100.00
9784;BME280;4931;44.874;-1.092;2024-01-15T02:12:35;100893.81;;;5.56;100.00
9784;BME280;4931;44.874;-1.092;2024-01-15T02:15:01;100898.25;;;5.62;100.00
9784;BME280;4931;44.874;-1.092;2024-01-15T02:17:26;100902.16;;;5.66;100.00
9784;BME280;4931;44.874;-1.092;2024-01-15T02:19:52;100893.16;;;5.65;100.00
9784;BME280;4931;44.874;-1.092;2024-01-15T02:22:17;100888.56;;;5.66;100.00
9784;BME280;4931;44.874;-1.092;2024-01-15T02:24:43;100900.59;;;5.70;100.00
9784;BME280;4931;44.874;-1.092;2024-01-15T02:27:08;100899.28;;;5.73;100.00
9784;BME280;4931;44.874;-1.092;2024-01-15T02:29:34;100901.16;;;5.72;100.00
9784;BME280;4931;44.874;-1.092;2024-01-15T02:32:04;100887.72;;;5.65;100.00
9784;BME280;4931;44.874;-1.092;2024-01-15T02:34:32;100888.41;;;5.73;100.00
9784;BME280;4931;44.874;-1.092;2024-01-15T02:36:57;100874.53;;;5.74;100.00
9784;BME280;4931;44.874;-1.092;2024-01-15T02:39:23;100869.09;;;5.74;100.00
9784;BME280;4931;44.874;-1.092;2024-01-15T02:41:48;100867.09;;;5.70;100.00
9784;BME280;4931;44.874;-1.092;2024-01-15T02:44:13;100859.94;;;5.63;100.00
9784;BME280;4931;44.874;-1.092;2024-01-15T02:46:39;100849.75;;;5.59;100.00
9784;BME280;4931;44.874;-1.092;2024-01-15T02:49:04;100838.53;;;5.55;100.00
9784;BME280;4931;44.874;-1.092;2024-01-15T02:51:30;100828.59;;;5.61;100.00
9784;BME280;4931;44.874;-1.092;2024-01-15T02:53:55;100828.09;;;5.64;100.00
9784;BME280;4931;44.874;-1.092;2024-01-15T02:56:20;100831.16;;;5.68;100.00
9784;BME280;4931;44.874;-1.092;2024-01-15T02:58:46;100810.44;;;5.67;100.00
9784;BME280;4931;44.874;-1.092;2024-01-15T03:01:11;100819.41;;;5.67;100.00
9784;BME280;4931;44.874;-1.092;2024-01-15T03:03:37;100816.59;;;5.62;100.00
9784;BME280;4931;44.874;-1.092;2024-01-15T03:06:02;100821.56;;;5.65;100.00
9784;BME280;4931;44.874;-1.092;2024-01-15T03:08:28;100823.69;;;5.63;100.00
9784;BME280;4931;44.874;-1.092;2024-01-15T03:10:54;100822.72;;;5.69;100.00
9784;BME280;4931;44.874;-1.092;2024-01-15T03:13:19;100814.81;;;5.68;100.00
9784;BME280;4931;44.874;-1.092;2024-01-15T03:15:45;100807.22;;;5.70;100.00
9784;BME280;4931;44.874;-1.092;2024-01-15T03:18:10;100811.84;;;5.69;100.00
9784;BME280;4931;44.874;-1.092;2024-01-15T03:20:36;100806.41;;;5.69;100.00
9784;BME280;4931;44.874;-1.092;2024-01-15T03:23:01;100800.13;;;5.69;100.00
9784;BME280;4931;44.874;-1.092;2024-01-15T03:25:27;100798.78;;;5.71;100.00
9784;BME280;4931;44.874;-1.092;2024-01-15T03:27:52;100796.47;;;5.63;100.00
9784;BME280;4931;44.874;-1.092;2024-01-15T03:30:17;100791.03;;;5.63;100.00
9784;BME280;4931;44.874;-1.092;2024-01-15T03:32:43;100798.13;;;5.64;100.00
9784;BME280;4931;44.874;-1.092;2024-01-15T03:35:08;100789.38;;;5.62;100.00
9784;BME280;4931;44.874;-1.092;2024-01-15T03:37:34;100788.91;;;5.65;100.00
9784;BME280;4931;44.874;-1.092;2024-01-15T03:40:00;100782.78;;;5.58;100.00
9784;BME280;4931;44.874;-1.092;2024-01-15T03:42:26;100775.47;;;5.58;100.00
9784;BME280;4931;44.874;-1.092;2024-01-15T03:44:51;100766.47;;;5.58;100.00
9784;BME280;4931;44.874;-1.092;2024-01-15T03:47:17;100776.38;;;5.64;100.00
9784;BME280;4931;44.874;-1.092;2024-01-15T03:49:42;100770.13;;;5.63;100.00
9784;BME280;4931;44.874;-1.092;2024-01-15T03:52:07;100763.56;;;5.64;100.00
9784;BME280;4931;44.874;-1.092;2024-01-15T03:54:33;100764.41;;;5.65;100.00
9784;BME280;4931;44.874;-1.092;2024-01-15T03:56:58;100766.53;;;5.63;100.00
9784;BME280;4931;44.874;-1.092;2024-01-15T03:59:24;100768.78;;;5.66;100.00
9784;BME280;4931;44.874;-1.092;2024-01-15T04:01:49;100775.88;;;5.67;100.00
9784;BME280;4931;44.874;-1.092;2024-01-15T04:04:16;100772.91;;;5.69;100.00
9784;BME280;4931;44.874;-1.092;2024-01-15T04:06:42;100772.06;;;5.68;100.00
9784;BME280;4931;44.874;-1.092;2024-01-15T04:09:07;100770.66;;;5.65;100.00
9784;BME280;4931;44.874;-1.092;2024-01-15T04:11:33;100774.81;;;5.68;100.00
9784;BME280;4931;44.874;-1.092;2024-01-15T04:13:58;100778.69;;;5.72;100.00
9784;BME280;4931;44.874;-1.092;2024-01-15T04:16:24;100768.84;;;5.71;100.00
9784;BME280;4931;44.874;-1.092;2024-01-15T04:18:49;100780.34;;;5.73;100.00
9784;BME280;4931;44.874;-1.092;2024-01-15T04:21:17;100768.19;;;5.64;100.00
9784;BME280;4931;44.874;-1.092;2024-01-15T04:23:42;100766.63;;;5.68;100.00
9784;BME280;4931;44.874;-1.092;2024-01-15T04:26:08;100762.84;;;5.69;100.00
9784;BME280;4931;44.874;-1.092;2024-01-15T04:28:33;100750.31;;;5.68;100.00
9784;BME280;4931;44.874;-1.092;2024-01-15T04:30:59;100746.50;;;5.69;100.00
9784;BME280;4931;44.874;-1.092;2024-01-15T04:33:24;100743.88;;;5.57;100.00
9784;BME280;4931;44.874;-1.092;2024-01-15T04:35:50;100750.53;;;5.49;100.00
9784;BME280;4931;44.874;-1.092;2024-01-15T04:38:15;100746.66;;;5.45;100.00
9784;BME280;4931;44.874;-1.092;2024-01-15T04:40:40;100745.34;;;5.48;100.00
9784;BME280;4931;44.874;-1.092;2024-01-15T04:43:06;100747.91;;;5.55;100.00
9784;BME280;4931;44.874;-1.092;2024-01-15T04:45:31;100744.69;;;5.58;100.00
9784;BME280;4931;44.874;-1.092;2024-01-15T04:47:57;100740.41;;;5.62;100.00
9784;BME280;4931;44.874;-1.092;2024-01-15T04:50:23;100739.84;;;5.60;100.00
9784;BME280;4931;44.874;-1.092;2024-01-15T04:52:49;100731.66;;;5.60;100.00
9784;BME280;4931;44.874;-1.092;2024-01-15T04:55:14;100727.88;;;5.61;100.00
9784;BME280;4931;44.874;-1.092;2024-01-15T04:57:40;100723.41;;;5.55;100.00
9784;BME280;4931;44.874;-1.092;2024-01-15T05:00:06;100722.59;;;5.54;100.00
9784;BME280;4931;44.874;-1.092;2024-01-15T05:02:32;100716.91;;;5.56;100.00
9784;BME280;4931;44.874;-1.092;2024-01-15T05:04:58;100710.31;;;5.52;100.00
9784;BME280;4931;44.874;-1.092;2024-01-15T05:07:23;100713.34;;;5.55;100.00
9784;BME280;4931;44.874;-1.092;2024-01-15T05:09:49;100715.81;;;5.57;100.00
9784;BME280;4931;44.874;-1.092;2024-01-15T05:12:14;100712.03;;;5.58;100.00
9784;BME280;4931;44.874;-1.092;2024-01-15T05:14:39;100717.00;;;5.61;100.00
9784;BME280;4931;44.874;-1.092;2024-01-15T05:17:05;100706.41;;;5.64;100.00
9784;BME280;4931;44.874;-1.092;2024-01-15T05:19:30;100707.81;;;5.67;100.00
9784;BME280;4931;44.874;-1.092;2024-01-15T05:21:56;100700.16;;;5.64;100.00
9784;BME280;4931;44.874;-1.092;2024-01-15T05:24:21;100690.34;;;5.63;100.00
9784;BME280;4931;44.874;-1.092;2024-01-15T05:26:47;100692.00;;;5.64;100.00
9784;BME280;4931;44.874;-1.092;2024-01-15T05:29:12;100688.59;;;5.57;100.00
9784;BME280;4931;44.874;-1.092;2024-01-15T05:31:37;100693.06;;;5.63;100.00
9784;BME280;4931;44.874;-1.092;2024-01-15T05:34:03;100698.84;;;5.67;100.00
9784;BME280;4931;44.874;-1.092;2024-01-15T05:36:28;100691.28;;;5.69;100.00
9784;BME280;4931;44.874;-1.092;2024-01-15T05:38:54;100688.03;;;5.72;100.00
9784;BME280;4931;44.874;-1.092;2024-01-15T05:41:19;100676.25;;;5.66;100.00
9784;BME280;4931;44.874;-1.092;2024-01-15T05:43:45;100685.56;;;5.70;100.00
9784;BME280;4931;44.874;-1.092;2024-01-15T05:46:10;100694.53;;;5.71;100.00
9784;BME280;4931;44.874;-1.092;2024-01-15T05:48:35;100688.28;;;5.70;100.00
9784;BME280;4931;44.874;-1.092;2024-01-15T05:51:01;100689.91;;;5.71;100.00
9784;BME280;4931;44.874;-1.092;2024-01-15T05:53:27;100696.53;;;5.75;100.00
9784;BME280;4931;44.874;-1.092;2024-01-15T05:55:52;100691.97;;;5.81;100.00
9784;BME280;4931;44.874;-1.092;2024-01-15T05:58:19;100688.50;;;5.86;100.00
9784;BME280;4931;44.874;-1.092;2024-01-15T06:00:44;100683.00;;;5.80;100.00
9784;BME280;4931;44.874;-1.092;2024-01-15T06:03:11;100687.44;;;5.87;100.00
9784;BME280;4931;44.874;-1.092;2024-01-15T06:05:36;100684.69;;;5.87;100.00
9784;BME280;4931;44.874;-1.092;2024-01-15T06:08:02;100683.63;;;5.88;100.00
9784;BME280;4931;44.874;-1.092;2024-01-15T06:10:27;100699.47;;;5.91;100.00
9784;BME280;4931;44.874;-1.092;2024-01-15T06:12:53;100686.44;;;5.93;100.00
9784;BME280;4931;44.874;-1.092;2024-01-15T06:15:18;100678.84;;;5.95;100.00
9784;BME280;4931;44.874;-1.092;2024-01-15T06:17:44;100678.84;;;5.95;100.00
9784;BME280;4931;44.874;-1.092;2024-01-15T06:20:10;100673.88;;;5.92;100.00
9784;BME280;4931;44.874;-1.092;2024-01-15T06:22:35;100680.47;;;5.96;100.00
9784;BME280;4931;44.874;-1.092;2024-01-15T06:25:02;100671.25;;;5.97;100.00
9784;BME280;4931;44.874;-1.092;2024-01-15T06:27:28;100665.78;;;5.97;100.00
9784;BME280;4931;44.874;-1.092;2024-01-15T06:29:53;100670.75;;;6.00;100.00
9784;BME280;4931;44.874;-1.092;2024-01-15T06:32:20;100672.16;;;6.03;100.00
9784;BME280;4931;44.874;-1.092;2024-01-15T06:34:46;100671.94;;;6.04;100.00
9784;BME280;4931;44.874;-1.092;2024-01-15T06:37:11;100669.75;;;6.06;100.00
9784;BME280;4931;44.874;-1.092;2024-01-15T06:39:37;100665.38;;;6.05;100.00
9784;BME280;4931;44.874;-1.092;2024-01-15T06:42:03;100669.03;;;6.11;100.00
9784;BME280;4931;44.874;-1.092;2024-01-15T06:44:28;100672.56;;;6.11;100.00
9784;BME280;4931;44.874;-1.092;2024-01-15T06:46:53;100661.16;;;6.14;100.00
9784;BME280;4931;44.874;-1.092;2024-01-15T06:49:23;100663.31;;;6.12;100.00
9784;BME280;4931;44.874;-1.092;2024-01-15T06:51:48;100664.44;;;6.17;100.00
9784;BME280;4931;44.874;-1.092;2024-01-15T06:54:13;100667.75;;;6.19;100.00
9784;BME280;4931;44.874;-1.092;2024-01-15T06:56:39;100665.25;;;6.17;100.00
9784;BME280;4931;44.874;-1.092;2024-01-15T06:59:04;100671.38;;;6.24;100.00
9784;BME280;4931;44.874;-1.092;2024-01-15T07:01:30;100669.19;;;6.26;100.00
9784;BME280;4931;44.874;-1.092;2024-01-15T07:03:55;100673.91;;;6.31;100.00
9784;BME280;4931;44.874;-1.092;2024-01-15T07:06:21;100672.81;;;6.32;100.00
9784;BME280;4931;44.874;-1.092;2024-01-15T07:08:46;100666.84;;;6.35;100.00
9784;BME280;4931;44.874;-1.092;2024-01-15T07:11:11;100673.31;;;6.29;100.00
9784;BME280;4931;44.874;-1.092;2024-01-15T07:13:37;100677.44;;;6.31;100.00
9784;BME280;4931;44.874;-1.092;2024-01-15T07:16:03;100679.28;;;6.26;100.00
9784;BME280;4931;44.874;-1.092;2024-01-15T07:18:28;100679.94;;;6.33;100.00
9784;BME280;4931;44.874;-1.092;2024-01-15T07:20:54;100689.16;;;6.32;100.00
9784;BME280;4931;44.874;-1.092;2024-01-15T07:23:19;100697.41;;;6.37;100.00
9784;BME280;4931;44.874;-1.092;2024-01-15T07:25:45;100698.56;;;6.41;100.00
9784;BME280;4931;44.874;-1.092;2024-01-15T07:28:10;100701.81;;;6.43;100.00
9784;BME280;4931;44.874;-1.092;2024-01-15T07:30:36;100699.09;;;6.43;100.00
9784;BME280;4931;44.874;-1.092;2024-01-15T07:33:04;100707.28;;;6.43;100.00
9784;BME280;4931;44.874;-1.092;2024-01-15T07:35:29;100703.00;;;6.47;100.00
9784;BME280;4931;44.874;-1.092;2024-01-15T07:37:55;100701.81;;;6.43;100.00
9784;BME280;4931;44.874;-1.092;2024-01-15T07:40:21;100696.38;;;6.43;100.00
9784;BME280;4931;44.874;-1.092;2024-01-15T07:42:46;100703.47;;;6.44;100.00
9784;BME280;4931;44.874;-1.092;2024-01-15T07:45:12;100708.44;;;6.47;100.00
9784;BME280;4931;44.874;-1.092;2024-01-15T07:47:38;100712.78;;;6.48;100.00
9784;BME280;4931;44.874;-1.092;2024-01-15T07:50:04;100718.56;;;6.52;100.00
9784;BME280;4931;44.874;-1.092;2024-01-15T07:52:30;100720.78;;;6.55;100.00
9784;BME280;4931;44.874;-1.092;2024-01-15T07:54:56;100718.91;;;6.56;100.00
9784;BME280;4931;44.874;-1.092;2024-01-15T07:57:21;100714.00;;;6.58;100.00
9784;BME280;4931;44.874;-1.092;2024-01-15T07:59:48;100725.47;;;6.60;100.00
9784;BME280;4931;44.874;-1.092;2024-01-15T08:02:13;100730.13;;;6.59;100.00
9784;BME280;4931;44.874;-1.092;2024-01-15T08:04:39;100739.31;;;6.75;100.00
9784;BME280;4931;44.874;-1.092;2024-01-15T08:07:04;100747.47;;;6.75;100.00
9784;BME280;4931;44.874;-1.092;2024-01-15T08:09:32;100748.56;;;6.74;100.00
9784;BME280;4931;44.874;-1.092;2024-01-15T08:11:57;100748.88;;;6.78;100.00
9784;BME280;4931;44.874;-1.092;2024-01-15T08:14:23;100743.69;;;6.76;100.00
9784;BME280;4931;44.874;-1.092;2024-01-15T08:16:49;100749.94;;;6.77;100.00
9784;BME280;4931;44.874;-1.092;2024-01-15T08:19:14;100761.19;;;6.80;100.00
9784;BME280;4931;44.874;-1.092;2024-01-15T08:21:40;100759.53;;;6.79;100.00
9784;BME280;4931;44.874;-1.092;2024-01-15T08:24:05;100766.63;;;6.80;100.00
9784;BME280;4931;44.874;-1.092;2024-01-15T08:26:31;100768.25;;;6.81;100.00
9784;BME280;4931;44.874;-1.092;2024-01-15T08:29:00;100766.38;;;6.82;100.00
9784;BME280;4931;44.874;-1.092;2024-01-15T08:31:25;100769.91;;;6.82;100.00
9784;BME280;4931;44.874;-1.092;2024-01-15T08:33:51;100780.31;;;6.86;100.00
9784;BME280;4931;44.874;-1.092;2024-01-15T08:36:16;100776.00;;;6.90;100.00
9784;BME280;4931;44.874;-1.092;2024-01-15T08:38:42;100773.03;;;6.91;100.00
9784;BME280;4931;44.874;-1.092;2024-01-15T08:41:08;100770.63;;;6.95;100.00
9784;BME280;4931;44.874;-1.092;2024-01-15T08:43:34;100772.00;;;6.97;100.00
9784;BME280;4931;44.874;-1.092;2024-01-15T08:45:59;100776.13;;;7.00;100.00
9784;BME280;4931;44.874;-1.092;2024-01-15T08:48:25;100763.88;;;7.03;100.00
9784;BME280;4931;44.874;-1.092;2024-01-15T08:50:53;100773.50;;;7.10;100.00
9784;BME280;4931;44.874;-1.092;2024-01-15T08:53:19;100780.59;;;7.11;100.00
9784;BME280;4931;44.874;-1.092;2024-01-15T08:55:44;100776.47;;;7.09;100.00
9784;BME280;4931;44.874;-1.092;2024-01-15T08:58:10;100775.72;;;7.13;100.00
9784;BME280;4931;44.874;-1.092;2024-01-15T09:00:35;100780.72;;;7.22;100.00
9784;BME280;4931;44.874;-1.092;2024-01-15T09:03:01;100780.44;;;7.23;100.00
9784;BME280;4931;44.874;-1.092;2024-01-15T09:05:27;100781.28;;;7.24;100.00
9784;BME280;4931;44.874;-1.092;2024-01-15T09:07:54;100795.50;;;7.26;100.00
9784;BME280;4931;44.874;-1.092;2024-01-15T09:10:20;100791.16;;;7.30;100.00
9784;BME280;4931;44.874;-1.092;2024-01-15T09:12:45;100785.22;;;7.33;100.00
9784;BME280;4931;44.874;-1.092;2024-01-15T09:15:11;100786.03;;;7.34;100.00
9784;BME280;4931;44.874;-1.092;2024-01-15T09:17:37;100797.81;;;7.39;100.00
9784;BME280;4931;44.874;-1.092;2024-01-15T09:20:02;100800.69;;;7.55;100.00
9784;BME280;4931;44.874;-1.092;2024-01-15T09:22:31;100799.88;;;7.54;100.00
9784;BME280;4931;44.874;-1.092;2024-01-15T09:24:56;100794.16;;;7.56;100.00
9784;BME280;4931;44.874;-1.092;2024-01-15T09:27:21;100806.19;;;7.60;100.00
9784;BME280;4931;44.874;-1.092;2024-01-15T09:29:47;100801.88;;;7.64;100.00
9784;BME280;4931;44.874;-1.092;2024-01-15T09:32:12;100799.19;;;7.69;100.00
9784;BME280;4931;44.874;-1.092;2024-01-15T09:34:38;100803.00;;;7.68;100.00
9784;BME280;4931;44.874;-1.092;2024-01-15T09:37:04;100796.72;;;7.68;100.00
9784;BME280;4931;44.874;-1.092;2024-01-15T09:39:30;100819.41;;;7.73;100.00
9784;BME280;4931;44.874;-1.092;2024-01-15T09:41:56;100835.03;;;7.78;100.00
9784;BME280;4931;44.874;-1.092;2024-01-15T09:44:22;100832.03;;;7.79;100.00
9784;BME280;4931;44.874;-1.092;2024-01-15T09:46:48;100887.53;;;7.85;100.00
9784;BME280;4931;44.874;-1.092;2024-01-15T09:49:17;101021.75;;;7.94;100.00
9784;BME280;4931;44.874;-1.092;2024-01-15T09:51:43;101029.94;;;7.94;100.00
9784;BME280;4931;44.874;-1.092;2024-01-15T09:54:09;101019.84;;;7.94;100.00
9784;BME280;4931;44.874;-1.092;2024-01-15T09:56:35;101019.03;;;7.94;100.00
9784;BME280;4931;44.874;-1.092;2024-01-15T09:59:01;101031.13;;;8.03;100.00
9784;BME280;4931;44.874;-1.092;2024-01-15T10:01:30;101049.75;;;8.06;100.00
9784;BME280;4931;44.874;-1.092;2024-01-15T10:03:56;101065.06;;;8.07;100.00
9784;BME280;4931;44.874;-1.092;2024-01-15T10:06:22;101069.44;;;8.08;100.00
9784;BME280;4931;44.874;-1.092;2024-01-15T10:08:49;101087.81;;;8.13;100.00
9784;BME280;4931;44.874;-1.092;2024-01-15T10:11:15;101171.75;;;8.18;100.00
9784;BME280;4931;44.874;-1.092;2024-01-15T10:13:43;101222.63;;;8.19;100.00
9784;BME280;4931;44.874;-1.092;2024-01-15T10:16:08;101420.91;;;8.26;100.00
9784;BME280;4931;44.874;-1.092;2024-01-15T10:18:34;101515.81;;;8.31;100.00
9784;BME280;4931;44.874;-1.092;2024-01-15T10:21:02;101795.75;;;8.30;100.00
9784;BME280;4931;44.874;-1.092;2024-01-15T10:23:29;101865.84;;;8.36;100.00
9784;BME280;4931;44.874;-1.092;2024-01-15T10:25:56;102197.91;;;8.40;100.00
9784;BME280;4931;44.874;-1.092;2024-01-15T10:28:26;102280.88;;;8.71;100.00
9784;BME280;4931;44.874;-1.092;2024-01-15T10:30:56;102871.03;;;8.77;100.00
9784;BME280;4931;44.874;-1.092;2024-01-15T10:33:22;102871.78;;;8.98;100.00
9784;BME280;4931;44.874;-1.092;2024-01-15T10:35:57;102868.38;;;9.09;100.00
9784;BME280;4931;44.874;-1.092;2024-01-15T10:38:24;102860.38;;;9.08;100.00
9784;BME280;4931;44.874;-1.092;2024-01-15T10:40:54;102846.28;;;9.04;100.00
9784;BME280;4931;44.874;-1.092;2024-01-15T10:43:20;102847.69;;;9.13;100.00
9784;BME280;4931;44.874;-1.092;2024-01-15T10:45:48;102851.78;;;9.36;100.00
9784;BME280;4931;44.874;-1.092;2024-01-15T10:48:14;102849.72;;;9.32;100.00
9784;BME280;4931;44.874;-1.092;2024-01-15T10:50:41;102848.25;;;9.29;100.00
9784;BME280;4931;44.874;-1.092;2024-01-15T10:53:08;102866.97;;;9.32;100.00
9784;BME280;4931;44.874;-1.092;2024-01-15T10:55:35;102866.09;;;9.38;100.00
9784;BME280;4931;44.874;-1.092;2024-01-15T10:58:03;102866.50;;;9.42;100.00
9784;BME280;4931;44.874;-1.092;2024-01-15T11:00:29;102866.50;;;9.42;100.00
9784;BME280;4931;44.874;-1.092;2024-01-15T11:02:55;102871.06;;;9.55;100.00
9784;BME280;4931;44.874;-1.092;2024-01-15T11:05:22;102886.91;;;9.78;100.00
9784;BME280;4931;44.874;-1.092;2024-01-15T11:07:54;102890.69;;;9.77;100.00
9784;BME280;4931;44.874;-1.092;2024-01-15T11:10:45;102886.41;;;9.88;100.00
9784;BME280;4931;44.874;-1.092;2024-01-15T11:13:15;102868.75;;;9.77;100.00
9784;BME280;4931;44.874;-1.092;2024-01-15T11:16:02;102862.91;;;9.73;100.00
9784;BME280;4931;44.874;-1.092;2024-01-15T11:18:35;102859.53;;;9.71;100.00
9784;BME280;4931;44.874;-1.092;2024-01-15T11:23:42;102876.00;;;9.96;100.00
9784;BME280;4931;44.874;-1.092;2024-01-15T11:31:58;102888.81;;;10.03;100.00
9784;BME280;4931;44.874;-1.092;2024-01-15T11:34:58;102883.72;;;10.06;100.00
9784;BME280;4931;44.874;-1.092;2024-01-15T11:37:26;102877.78;;;10.09;100.00
9784;BME280;4931;44.874;-1.092;2024-01-15T11:39:56;102881.16;;;10.11;100.00
9784;BME280;4931;44.874;-1.092;2024-01-15T11:42:25;102903.47;;;10.15;100.00
9784;BME280;4931;44.874;-1.092;2024-01-15T11:44:52;102880.31;;;10.36;100.00
9784;BME280;4931;44.874;-1.092;2024-01-15T11:50:22;102888.94;;;10.33;100.00
9784;BME280;4931;44.874;-1.092;2024-01-15T11:52:57;102885.59;;;10.31;100.00
9784;BME280;4931;44.874;-1.092;2024-01-15T11:55:34;102882.19;;;10.36;100.00
9784;BME280;4931;44.874;-1.092;2024-01-15T11:58:01;102873.47;;;10.64;100.00
9784;BME280;4931;44.874;-1.092;2024-01-15T12:00:28;102869.19;;;10.68;100.00
9784;BME280;4931;44.874;-1.092;2024-01-15T12:02:53;102864.44;;;10.75;100.00
9784;BME280;4931;44.874;-1.092;2024-01-15T12:05:20;102850.44;;;10.84;100.00
9784;BME280;4931;44.874;-1.092;2024-01-15T12:07:48;102840.28;;;10.84;100.00
9784;BME280;4931;44.874;-1.092;2024-01-15T12:15:18;102792.47;;;10.73;100.00
9784;BME280;4931;44.874;-1.092;2024-01-15T12:17:43;102799.91;;;10.85;100.00
9784;BME280;4931;44.874;-1.092;2024-01-15T12:20:11;102795.53;;;10.84;100.00
9784;BME280;4931;44.874;-1.092;2024-01-15T12:22:37;102804.91;;;11.06;100.00
9784;BME280;4931;44.874;-1.092;2024-01-15T12:25:03;102802.16;;;11.06;100.00
9784;BME280;4931;44.874;-1.092;2024-01-15T12:27:29;102796.53;;;11.01;100.00
9784;BME280;4931;44.874;-1.092;2024-01-15T12:29:55;102786.91;;;11.10;100.00
9784;BME280;4931;44.874;-1.092;2024-01-15T12:32:20;102785.16;;;10.98;100.00
9784;BME280;4931;44.874;-1.092;2024-01-15T12:34:49;102789.16;;;11.13;100.00
9784;BME280;4931;44.874;-1.092;2024-01-15T12:37:14;102790.13;;;11.07;100.00
9784;BME280;4931;44.874;-1.092;2024-01-15T12:39:43;102783.56;;;11.08;100.00
9784;BME280;4931;44.874;-1.092;2024-01-15T12:42:08;102788.81;;;11.10;100.00
9784;BME280;4931;44.874;-1.092;2024-01-15T12:44:35;102806.75;;;11.12;100.00
9784;BME280;4931;44.874;-1.092;2024-01-15T12:47:04;102802.44;;;11.17;100.00
9784;BME280;4931;44.874;-1.092;2024-01-15T12:49:29;102796.34;;;11.15;100.00
9784;BME280;4931;44.874;-1.092;2024-01-15T12:51:58;102795.56;;;11.38;100.00
9784;BME280;4931;44.874;-1.092;2024-01-15T12:54:25;102800.13;;;11.44;100.00
9784;BME280;4931;44.874;-1.092;2024-01-15T12:56:51;102802.66;;;11.45;100.00
9784;BME280;4931;44.874;-1.092;2024-01-15T12:59:17;102801.44;;;11.41;100.00
9784;BME280;4931;44.874;-1.092;2024-01-15T13:01:43;102792.72;;;11.56;100.00
9784;BME280;4931;44.874;-1.092;2024-01-15T13:04:09;102786.03;;;11.40;100.00
9784;BME280;4931;44.874;-1.092;2024-01-15T13:06:35;102780.03;;;11.32;100.00
9784;BME280;4931;44.874;-1.092;2024-01-15T13:09:00;102765.91;;;11.28;100.00
9784;BME280;4931;44.874;-1.092;2024-01-15T13:11:27;102768.66;;;11.28;100.00